sensor_id;sensor_type;location;lat;lon;timestamp;temperature;humidity
10986;DHT22;5546;48.714;8.738;2022-09-16T00:02:22;16.30;99.90
10986;DHT22;5546;48.714;8.738;2022-09-16T00:04:48;16.30;99.90
10986;DHT22;5546;48.714;8.738;2022-09-16T00:07:13;16.30;99.90
10986;DHT22;5546;48.714;8.738;2022-09-16T00:09:39;16.30;99.90
10986;DHT22;5546;48.714;8.738;2022-09-16T00:12:06;16.20;99.90
10986;DHT22;5546;48.714;8.738;2022-09-16T00:14:32;16.30;99.90
10986;DHT22;5546;48.714;8.738;2022-09-16T00:16:58;16.10;99.90
10986;DHT22;5546;48.714;8.738;2022-09-16T00:19:23;16.10;99.90
10986;DHT22;5546;48.714;8.738;2022-09-16T00:21:49;16.50;99.90
10986;DHT22;5546;48.714;8.738;2022-09-16T00:24:15;16.30;99.90
10986;DHT22;5546;48.714;8.738;2022-09-16T00:26:41;16.20;99.90
10986;DHT22;5546;48.714;8.738;2022-09-16T00:29:08;16.30;99.90
10986;DHT22;5546;48.714;8.738;2022-09-16T00:31:33;16.60;99.80
10986;DHT22;5546;48.714;8.738;2022-09-16T00:33:59;16.50;99.80
10986;DHT22;5546;48.714;8.738;2022-09-16T00:36:24;16.50;99.80
10986;DHT22;5546;48.714;8.738;2022-09-16T00:38:52;16.30;99.90
10986;DHT22;5546;48.714;8.738;2022-09-16T00:41:25;16.10;99.90
10986;DHT22;5546;48.714;8.738;2022-09-16T00:43:58;16.10;99.90
10986;DHT22;5546;48.714;8.738;2022-09-16T00:46:45;16.30;99.90
10986;DHT22;5546;48.714;8.738;2022-09-16T00:49:14;16.30;99.90
10986;DHT22;5546;48.714;8.738;2022-09-16T00:51:44;16.50;99.90
10986;DHT22;5546;48.714;8.738;2022-09-16T00:54:12;16.20;99.90
10986;DHT22;5546;48.714;8.738;2022-09-16T00:56:40;16.20;99.90
10986;DHT22;5546;48.714;8.738;2022-09-16T00:59:16;15.90;99.90
10986;DHT22;5546;48.714;8.738;2022-09-16T01:01:43;15.90;99.90
10986;DHT22;5546;48.714;8.738;2022-09-16T01:04:14;15.50;99.90
10986;DHT22;5546;48.714;8.738;2022-09-16T01:06:41;15.80;99.90
10986;DHT22;5546;48.714;8.738;2022-09-16T01:09:07;15.90;99.90
10986;DHT22;5546;48.714;8.738;2022-09-16T01:11:32;16.30;99.90
10986;DHT22;5546;48.714;8.738;2022-09-16T01:13:59;16.30;99.90
10986;DHT22;5546;48.714;8.738;2022-09-16T01:16:53;16.70;99.80
10986;DHT22;5546;48.714;8.738;2022-09-16T01:20:20;16.70;99.90
10986;DHT22;5546;48.714;8.738;2022-09-16T01:23:21;16.40;99.90
10986;DHT22;5546;48.714;8.738;2022-09-16T01:26:21;16.40;99.90
10986;DHT22;5546;48.714;8.738;2022-09-16T01:31:45;15.90;99.90
10986;DHT22;5546;48.714;8.738;2022-09-16T01:42:59;15.70;99.90
10986;DHT22;5546;48.714;8.738;2022-09-16T01:45:41;16.10;99.90
10986;DHT22;5546;48.714;8.738;2022-09-16T01:48:18;16.40;99.90
10986;DHT22;5546;48.714;8.738;2022-09-16T01:53:32;16.50;99.90
10986;DHT22;5546;48.714;8.738;2022-09-16T01:56:13;16.30;99.90
10986;DHT22;5546;48.714;8.738;2022-09-16T02:01:24;16.30;99.90
10986;DHT22;5546;48.714;8.738;2022-09-16T02:03:56;16.30;99.90
10986;DHT22;5546;48.714;8.738;2022-09-16T02:06:24;16.30;99.90
10986;DHT22;5546;48.714;8.738;2022-09-16T02:08:57;16.30;99.90
10986;DHT22;5546;48.714;8.738;2022-09-16T02:11:24;16.40;99.90
10986;DHT22;5546;48.714;8.738;2022-09-16T02:14:05;16.40;99.90
10986;DHT22;5546;48.714;8.738;2022-09-16T02:16:40;16.10;99.90
10986;DHT22;5546;48.714;8.738;2022-09-16T02:19:20;16.10;99.90
10986;DHT22;5546;48.714;8.738;2022-09-16T02:21:49;16.00;99.90
10986;DHT22;5546;48.714;8.738;2022-09-16T02:24:17;15.60;99.90
10986;DHT22;5546;48.714;8.738;2022-09-16T02:26:53;15.60;99.90
10986;DHT22;5546;48.714;8.738;2022-09-16T02:29:26;16.00;99.90
10986;DHT22;5546;48.714;8.738;2022-09-16T02:31:57;16.10;99.90
10986;DHT22;5546;48.714;8.738;2022-09-16T02:34:43;16.20;99.90
10986;DHT22;5546;48.714;8.738;2022-09-16T02:37:17;16.50;99.80
10986;DHT22;5546;48.714;8.738;2022-09-16T02:39:47;16.40;99.90
10986;DHT22;5546;48.714;8.738;2022-09-16T02:42:13;16.30;99.80
10986;DHT22;5546;48.714;8.738;2022-09-16T02:44:40;16.20;99.90
10986;DHT22;5546;48.714;8.738;2022-09-16T02:49:56;16.40;99.90
10986;DHT22;5546;48.714;8.738;2022-09-16T02:53:03;16.50;99.50
10986;DHT22;5546;48.714;8.738;2022-09-16T02:58:08;16.40;99.90
10986;DHT22;5546;48.714;8.738;2022-09-16T03:00:38;16.40;99.80
10986;DHT22;5546;48.714;8.738;2022-09-16T03:03:04;16.40;99.70
10986;DHT22;5546;48.714;8.738;2022-09-16T03:05:31;16.10;99.90
10986;DHT22;5546;48.714;8.738;2022-09-16T03:07:57;16.10;99.90
10986;DHT22;5546;48.714;8.738;2022-09-16T03:10:27;16.10;99.90
10986;DHT22;5546;48.714;8.738;2022-09-16T03:13:16;16.40;99.90
10986;DHT22;5546;48.714;8.738;2022-09-16T03:16:01;16.40;99.90
10986;DHT22;5546;48.714;8.738;2022-09-16T03:18:58;16.50;99.90
10986;DHT22;5546;48.714;8.738;2022-09-16T03:21:37;16.60;99.80
10986;DHT22;5546;48.714;8.738;2022-09-16T03:24:25;16.20;99.90
10986;DHT22;5546;48.714;8.738;2022-09-16T03:27:19;15.80;99.90
10986;DHT22;5546;48.714;8.738;2022-09-16T03:30:06;15.90;99.90
10986;DHT22;5546;48.714;8.738;2022-09-16T03:32:47;15.60;99.90
10986;DHT22;5546;48.714;8.738;2022-09-16T03:35:40;15.50;99.90
10986;DHT22;5546;48.714;8.738;2022-09-16T03:38:09;15.60;99.90
10986;DHT22;5546;48.714;8.738;2022-09-16T03:40:36;15.80;99.90
10986;DHT22;5546;48.714;8.738;2022-09-16T03:43:10;16.30;99.90
10986;DHT22;5546;48.714;8.738;2022-09-16T03:45:36;16.40;99.90
10986;DHT22;5546;48.714;8.738;2022-09-16T03:48:01;16.30;99.90
10986;DHT22;5546;48.714;8.738;2022-09-16T03:50:27;16.00;99.90
10986;DHT22;5546;48.714;8.738;2022-09-16T03:52:52;16.00;99.90
10986;DHT22;5546;48.714;8.738;2022-09-16T03:55:18;16.10;99.90
10986;DHT22;5546;48.714;8.738;2022-09-16T03:57:43;16.30;99.90
10986;DHT22;5546;48.714;8.738;2022-09-16T04:00:10;16.60;99.90
10986;DHT22;5546;48.714;8.738;2022-09-16T04:02:36;16.60;99.80
10986;DHT22;5546;48.714;8.738;2022-09-16T04:05:01;16.60;99.90
10986;DHT22;5546;48.714;8.738;2022-09-16T04:07:28;16.70;99.90
10986;DHT22;5546;48.714;8.738;2022-09-16T04:09:53;16.90;99.50
10986;DHT22;5546;48.714;8.738;2022-09-16T04:12:19;16.80;99.70
10986;DHT22;5546;48.714;8.738;2022-09-16T04:14:44;16.80;99.70
10986;DHT22;5546;48.714;8.738;2022-09-16T04:17:10;16.60;99.90
10986;DHT22;5546;48.714;8.738;2022-09-16T04:19:35;16.50;99.90
10986;DHT22;5546;48.714;8.738;2022-09-16T04:22:01;16.50;99.90
10986;DHT22;5546;48.714;8.738;2022-09-16T04:24:26;16.60;99.90
10986;DHT22;5546;48.714;8.738;2022-09-16T04:26:52;16.70;99.90
10986;DHT22;5546;48.714;8.738;2022-09-16T04:29:17;16.40;99.90
10986;DHT22;5546;48.714;8.738;2022-09-16T04:31:43;16.00;99.90
10986;DHT22;5546;48.714;8.738;2022-09-16T04:34:09;16.50;99.90
10986;DHT22;5546;48.714;8.738;2022-09-16T04:36:37;16.50;99.90
10986;DHT22;5546;48.714;8.738;2022-09-16T04:39:04;16.60;99.90
10986;DHT22;5546;48.714;8.738;2022-09-16T04:41:30;16.40;99.90
10986;DHT22;5546;48.714;8.738;2022-09-16T04:43:58;16.60;99.90
10986;DHT22;5546;48.714;8.738;2022-09-16T04:46:25;16.70;99.90
10986;DHT22;5546;48.714;8.738;2022-09-16T04:48:52;16.80;99.90
10986;DHT22;5546;48.714;8.738;2022-09-16T04:51:19;16.30;99.90
10986;DHT22;5546;48.714;8.738;2022-09-16T04:53:45;16.30;99.90
10986;DHT22;5546;48.714;8.738;2022-09-16T04:58:50;16.50;99.90
10986;DHT22;5546;48.714;8.738;2022-09-16T05:01:22;16.40;99.90
10986;DHT22;5546;48.714;8.738;2022-09-16T05:03:50;16.40;99.90
10986;DHT22;5546;48.714;8.738;2022-09-16T05:06:21;16.40;99.90
10986;DHT22;5546;48.714;8.738;2022-09-16T05:08:48;16.10;99.90
10986;DHT22;5546;48.714;8.738;2022-09-16T05:11:25;16.30;99.90
10986;DHT22;5546;48.714;8.738;2022-09-16T05:13:52;16.20;99.90
10986;DHT22;5546;48.714;8.738;2022-09-16T05:16:20;16.20;99.90
10986;DHT22;5546;48.714;8.738;2022-09-16T05:18:47;16.30;99.90
10986;DHT22;5546;48.714;8.738;2022-09-16T05:21:15;16.40;99.90
10986;DHT22;5546;48.714;8.738;2022-09-16T05:23:41;16.40;99.90
10986;DHT22;5546;48.714;8.738;2022-09-16T05:26:10;16.50;99.90
10986;DHT22;5546;48.714;8.738;2022-09-16T05:31:19;16.60;99.90
10986;DHT22;5546;48.714;8.738;2022-09-16T05:33:52;16.50;99.90
10986;DHT22;5546;48.714;8.738;2022-09-16T05:36:18;16.60;99.90
10986;DHT22;5546;48.714;8.738;2022-09-16T05:38:44;16.50;99.90
10986;DHT22;5546;48.714;8.738;2022-09-16T05:41:10;16.50;99.90
10986;DHT22;5546;48.714;8.738;2022-09-16T05:43:36;16.40;99.90
10986;DHT22;5546;48.714;8.738;2022-09-16T05:46:03;16.40;99.90
10986;DHT22;5546;48.714;8.738;2022-09-16T05:48:30;16.50;99.90
10986;DHT22;5546;48.714;8.738;2022-09-16T05:50:59;16.60;99.90
10986;DHT22;5546;48.714;8.738;2022-09-16T05:53:26;16.30;99.90
10986;DHT22;5546;48.714;8.738;2022-09-16T05:55:57;16.30;99.90
10986;DHT22;5546;48.714;8.738;2022-09-16T05:58:23;16.60;99.90
10986;DHT22;5546;48.714;8.738;2022-09-16T06:00:49;16.60;99.90
10986;DHT22;5546;48.714;8.738;2022-09-16T06:03:15;16.70;99.90
10986;DHT22;5546;48.714;8.738;2022-09-16T06:05:40;16.60;99.90
10986;DHT22;5546;48.714;8.738;2022-09-16T06:08:06;16.30;99.90
10986;DHT22;5546;48.714;8.738;2022-09-16T06:10:36;16.50;99.90
10986;DHT22;5546;48.714;8.738;2022-09-16T06:13:02;16.50;99.90
10986;DHT22;5546;48.714;8.738;2022-09-16T06:15:28;16.70;99.90
10986;DHT22;5546;48.714;8.738;2022-09-16T06:17:53;16.40;99.90
10986;DHT22;5546;48.714;8.738;2022-09-16T06:20:19;16.30;99.90
10986;DHT22;5546;48.714;8.738;2022-09-16T06:22:44;16.50;99.90
10986;DHT22;5546;48.714;8.738;2022-09-16T06:25:10;16.50;99.90
10986;DHT22;5546;48.714;8.738;2022-09-16T06:27:36;16.20;99.90
10986;DHT22;5546;48.714;8.738;2022-09-16T06:30:02;16.20;99.90
10986;DHT22;5546;48.714;8.738;2022-09-16T06:32:30;16.10;99.90
10986;DHT22;5546;48.714;8.738;2022-09-16T06:34:56;16.10;99.90
10986;DHT22;5546;48.714;8.738;2022-09-16T06:37:21;16.20;99.90
10986;DHT22;5546;48.714;8.738;2022-09-16T06:39:47;16.20;99.90
10986;DHT22;5546;48.714;8.738;2022-09-16T06:42:12;16.20;99.90
10986;DHT22;5546;48.714;8.738;2022-09-16T06:44:39;16.20;99.90
10986;DHT22;5546;48.714;8.738;2022-09-16T06:47:05;16.30;99.90
10986;DHT22;5546;48.714;8.738;2022-09-16T06:49:31;16.50;99.90
10986;DHT22;5546;48.714;8.738;2022-09-16T06:51:56;16.50;99.90
10986;DHT22;5546;48.714;8.738;2022-09-16T06:54:22;16.70;99.90
10986;DHT22;5546;48.714;8.738;2022-09-16T06:56:47;16.90;99.90
10986;DHT22;5546;48.714;8.738;2022-09-16T06:59:13;16.90;99.90
10986;DHT22;5546;48.714;8.738;2022-09-16T07:01:39;16.70;99.90
10986;DHT22;5546;48.714;8.738;2022-09-16T07:04:07;16.60;99.90
10986;DHT22;5546;48.714;8.738;2022-09-16T07:06:38;16.50;99.90
10986;DHT22;5546;48.714;8.738;2022-09-16T07:09:04;16.50;99.90
10986;DHT22;5546;48.714;8.738;2022-09-16T07:11:29;16.30;99.90
10986;DHT22;5546;48.714;8.738;2022-09-16T07:13:55;16.20;99.90
10986;DHT22;5546;48.714;8.738;2022-09-16T07:16:24;16.60;99.90
10986;DHT22;5546;48.714;8.738;2022-09-16T07:18:54;16.60;99.90
10986;DHT22;5546;48.714;8.738;2022-09-16T07:21:22;16.40;99.90
10986;DHT22;5546;48.714;8.738;2022-09-16T07:23:50;16.40;99.90
10986;DHT22;5546;48.714;8.738;2022-09-16T07:26:17;16.60;99.90
10986;DHT22;5546;48.714;8.738;2022-09-16T07:28:44;16.60;99.90
10986;DHT22;5546;48.714;8.738;2022-09-16T07:31:19;16.60;99.90
10986;DHT22;5546;48.714;8.738;2022-09-16T07:33:47;16.80;99.90
10986;DHT22;5546;48.714;8.738;2022-09-16T07:36:19;16.70;99.90
10986;DHT22;5546;48.714;8.738;2022-09-16T07:38:45;16.70;99.90
10986;DHT22;5546;48.714;8.738;2022-09-16T07:41:14;16.80;99.90
10986;DHT22;5546;48.714;8.738;2022-09-16T07:43:40;16.40;99.90
10986;DHT22;5546;48.714;8.738;2022-09-16T07:46:08;16.30;99.90
10986;DHT22;5546;48.714;8.738;2022-09-16T07:48:35;16.20;99.90
10986;DHT22;5546;48.714;8.738;2022-09-16T07:51:04;16.20;99.90
10986;DHT22;5546;48.714;8.738;2022-09-16T07:53:30;16.20;99.90
10986;DHT22;5546;48.714;8.738;2022-09-16T07:56:07;16.80;99.90
10986;DHT22;5546;48.714;8.738;2022-09-16T07:58:33;17.00;99.90
10986;DHT22;5546;48.714;8.738;2022-09-16T08:00:58;17.00;99.90
10986;DHT22;5546;48.714;8.738;2022-09-16T08:03:24;17.40;99.90
10986;DHT22;5546;48.714;8.738;2022-09-16T08:05:50;17.40;99.90
10986;DHT22;5546;48.714;8.738;2022-09-16T08:08:16;17.40;99.90
10986;DHT22;5546;48.714;8.738;2022-09-16T08:10:42;17.40;99.90
10986;DHT22;5546;48.714;8.738;2022-09-16T08:13:08;17.60;99.90
10986;DHT22;5546;48.714;8.738;2022-09-16T08:15:34;17.40;99.50
10986;DHT22;5546;48.714;8.738;2022-09-16T08:18:00;16.90;99.90
10986;DHT22;5546;48.714;8.738;2022-09-16T08:20:26;16.80;99.90
10986;DHT22;5546;48.714;8.738;2022-09-16T08:22:52;16.90;99.90
10986;DHT22;5546;48.714;8.738;2022-09-16T08:25:18;17.20;99.90
10986;DHT22;5546;48.714;8.738;2022-09-16T08:27:43;17.40;99.30
10986;DHT22;5546;48.714;8.738;2022-09-16T08:30:10;17.40;99.50
10986;DHT22;5546;48.714;8.738;2022-09-16T08:32:35;17.30;99.90
10986;DHT22;5546;48.714;8.738;2022-09-16T08:35:01;16.90;99.00
10986;DHT22;5546;48.714;8.738;2022-09-16T08:37:26;16.80;99.90
10986;DHT22;5546;48.714;8.738;2022-09-16T08:39:52;16.80;99.90
10986;DHT22;5546;48.714;8.738;2022-09-16T08:45:34;17.30;98.90
10986;DHT22;5546;48.714;8.738;2022-09-16T08:48:26;17.30;98.00
10986;DHT22;5546;48.714;8.738;2022-09-16T08:50:56;17.00;98.00
10986;DHT22;5546;48.714;8.738;2022-09-16T08:53:37;17.40;99.10
10986;DHT22;5546;48.714;8.738;2022-09-16T08:56:06;17.50;99.60
10986;DHT22;5546;48.714;8.738;2022-09-16T08:58:43;17.30;99.90
10986;DHT22;5546;48.714;8.738;2022-09-16T09:01:46;17.40;99.90
10986;DHT22;5546;48.714;8.738;2022-09-16T09:04:13;17.50;99.90
10986;DHT22;5546;48.714;8.738;2022-09-16T09:06:56;17.80;99.90
10986;DHT22;5546;48.714;8.738;2022-09-16T09:12:38;18.00;99.60
10986;DHT22;5546;48.714;8.738;2022-09-16T09:18:20;18.40;98.50
10986;DHT22;5546;48.714;8.738;2022-09-16T09:26:19;18.80;98.30
10986;DHT22;5546;48.714;8.738;2022-09-16T09:28:58;18.80;97.80
10986;DHT22;5546;48.714;8.738;2022-09-16T09:40:22;17.80;99.00
10986;DHT22;5546;48.714;8.738;2022-09-16T09:43:11;17.90;99.20
10986;DHT22;5546;48.714;8.738;2022-09-16T09:46:04;18.20;99.00
10986;DHT22;5546;48.714;8.738;2022-09-16T09:48:50;17.90;99.00
10986;DHT22;5546;48.714;8.738;2022-09-16T09:51:43;18.00;98.60
10986;DHT22;5546;48.714;8.738;2022-09-16T09:54:28;17.90;98.60
10986;DHT22;5546;48.714;8.738;2022-09-16T09:57:02;18.00;98.70
10986;DHT22;5546;48.714;8.738;2022-09-16T10:02:17;17.90;98.50
10986;DHT22;5546;48.714;8.738;2022-09-16T10:04:43;17.70;98.20
10986;DHT22;5546;48.714;8.738;2022-09-16T10:07:13;17.80;98.00
10986;DHT22;5546;48.714;8.738;2022-09-16T10:09:50;17.80;98.20
10986;DHT22;5546;48.714;8.738;2022-09-16T10:12:26;17.70;98.90
10986;DHT22;5546;48.714;8.738;2022-09-16T10:14:52;17.90;99.10
10986;DHT22;5546;48.714;8.738;2022-09-16T10:17:18;18.00;99.10
10986;DHT22;5546;48.714;8.738;2022-09-16T10:19:53;18.50;97.90
10986;DHT22;5546;48.714;8.738;2022-09-16T10:22:31;19.10;96.70
10986;DHT22;5546;48.714;8.738;2022-09-16T10:25:16;19.60;96.30
10986;DHT22;5546;48.714;8.738;2022-09-16T10:27:54;19.60;96.50
10986;DHT22;5546;48.714;8.738;2022-09-16T10:30:19;20.20;95.80
10986;DHT22;5546;48.714;8.738;2022-09-16T10:33:01;20.60;93.50
10986;DHT22;5546;48.714;8.738;2022-09-16T10:35:30;20.10;94.80
10986;DHT22;5546;48.714;8.738;2022-09-16T10:37:57;20.30;95.40
10986;DHT22;5546;48.714;8.738;2022-09-16T10:40:24;19.80;93.50
10986;DHT22;5546;48.714;8.738;2022-09-16T10:42:52;19.80;93.90
10986;DHT22;5546;48.714;8.738;2022-09-16T10:45:27;19.80;94.50
10986;DHT22;5546;48.714;8.738;2022-09-16T10:47:59;19.80;95.10
10986;DHT22;5546;48.714;8.738;2022-09-16T10:50:26;19.50;94.90
10986;DHT22;5546;48.714;8.738;2022-09-16T10:52:52;19.00;95.90
10986;DHT22;5546;48.714;8.738;2022-09-16T10:57:44;18.90;95.70
10986;DHT22;5546;48.714;8.738;2022-09-16T11:00:16;18.80;95.90
10986;DHT22;5546;48.714;8.738;2022-09-16T11:16:49;19.10;93.70
10986;DHT22;5546;48.714;8.738;2022-09-16T11:21:54;19.70;95.10
10986;DHT22;5546;48.714;8.738;2022-09-16T11:30:02;20.30;90.40
10986;DHT22;5546;48.714;8.738;2022-09-16T11:35:30;20.40;88.60
10986;DHT22;5546;48.714;8.738;2022-09-16T11:40:46;20.80;85.80
10986;DHT22;5546;48.714;8.738;2022-09-16T11:54:17;21.20;89.20
10986;DHT22;5546;48.714;8.738;2022-09-16T11:56:49;21.20;88.70
10986;DHT22;5546;48.714;8.738;2022-09-16T12:00:34;21.10;84.80
10986;DHT22;5546;48.714;8.738;2022-09-16T12:05:46;21.10;86.60
10986;DHT22;5546;48.714;8.738;2022-09-16T12:11:31;21.00;86.30
10986;DHT22;5546;48.714;8.738;2022-09-16T12:14:14;21.40;87.80
10986;DHT22;5546;48.714;8.738;2022-09-16T12:16:55;21.00;89.00
10986;DHT22;5546;48.714;8.738;2022-09-16T12:19:32;21.10;85.20
10986;DHT22;5546;48.714;8.738;2022-09-16T12:22:08;21.30;83.50
10986;DHT22;5546;48.714;8.738;2022-09-16T12:25:12;20.50;86.10
10986;DHT22;5546;48.714;8.738;2022-09-16T12:27:42;20.30;81.70
10986;DHT22;5546;48.714;8.738;2022-09-16T12:30:18;20.20;82.30
10986;DHT22;5546;48.714;8.738;2022-09-16T12:33:49;20.30;87.00
10986;DHT22;5546;48.714;8.738;2022-09-16T12:35:53;20.50;87.50
10986;DHT22;5546;48.714;8.738;2022-09-16T12:38:20;22.40;75.50
10986;DHT22;5546;48.714;8.738;2022-09-16T12:55:07;26.80;59.80
10986;DHT22;5546;48.714;8.738;2022-09-16T12:58:27;26.40;59.70
10986;DHT22;5546;48.714;8.738;2022-09-16T13:00:42;29.70;56.90
10986;DHT22;5546;48.714;8.738;2022-09-16T13:03:18;29.40;55.80
10986;DHT22;5546;48.714;8.738;2022-09-16T13:05:47;29.40;57.80
10986;DHT22;5546;48.714;8.738;2022-09-16T13:08:25;30.90;51.40
10986;DHT22;5546;48.714;8.738;2022-09-16T13:11:05;31.10;49.20
10986;DHT22;5546;48.714;8.738;2022-09-16T13:13:35;30.90;49.60
10986;DHT22;5546;48.714;8.738;2022-09-16T13:16:03;30.90;48.20
10986;DHT22;5546;48.714;8.738;2022-09-16T13:18:44;31.60;47.90
10986;DHT22;5546;48.714;8.738;2022-09-16T13:21:28;32.70;46.90
10986;DHT22;5546;48.714;8.738;2022-09-16T13:24:10;30.60;46.90
10986;DHT22;5546;48.714;8.738;2022-09-16T13:26:42;30.10;47.50
10986;DHT22;5546;48.714;8.738;2022-09-16T13:29:37;29.50;48.30
10986;DHT22;5546;48.714;8.738;2022-09-16T13:32:03;28.50;49.20
10986;DHT22;5546;48.714;8.738;2022-09-16T13:34:29;27.20;51.50
10986;DHT22;5546;48.714;8.738;2022-09-16T13:36:55;24.50;56.90
10986;DHT22;5546;48.714;8.738;2022-09-16T13:39:30;23.70;61.70
10986;DHT22;5546;48.714;8.738;2022-09-16T13:42:09;22.40;63.60
10986;DHT22;5546;48.714;8.738;2022-09-16T13:44:38;22.20;64.40
10986;DHT22;5546;48.714;8.738;2022-09-16T13:49:52;22.50;72.60
10986;DHT22;5546;48.714;8.738;2022-09-16T13:52:22;21.60;65.60
10986;DHT22;5546;48.714;8.738;2022-09-16T13:54:52;21.50;66.70
10986;DHT22;5546;48.714;8.738;2022-09-16T13:57:28;21.00;73.20
10986;DHT22;5546;48.714;8.738;2022-09-16T14:05:26;23.30;72.60
10986;DHT22;5546;48.714;8.738;2022-09-16T14:08:15;24.20;66.90
10986;DHT22;5546;48.714;8.738;2022-09-16T14:13:29;24.90;57.60
10986;DHT22;5546;48.714;8.738;2022-09-16T14:15:57;24.70;58.70
10986;DHT22;5546;48.714;8.738;2022-09-16T14:18:26;23.90;58.60
10986;DHT22;5546;48.714;8.738;2022-09-16T14:21:01;23.90;59.10
10986;DHT22;5546;48.714;8.738;2022-09-16T14:23:28;23.00;63.30
10986;DHT22;5546;48.714;8.738;2022-09-16T14:28:24;21.70;64.40
10986;DHT22;5546;48.714;8.738;2022-09-16T14:30:56;21.70;65.20
10986;DHT22;5546;48.714;8.738;2022-09-16T14:33:28;21.20;71.50
10986;DHT22;5546;48.714;8.738;2022-09-16T14:35:55;20.80;67.90
10986;DHT22;5546;48.714;8.738;2022-09-16T14:38:36;20.40;71.30
10986;DHT22;5546;48.714;8.738;2022-09-16T14:41:06;20.30;69.20
10986;DHT22;5546;48.714;8.738;2022-09-16T14:43:33;20.40;74.60
10986;DHT22;5546;48.714;8.738;2022-09-16T14:46:01;20.60;70.60
10986;DHT22;5546;48.714;8.738;2022-09-16T14:48:31;20.60;70.80
10986;DHT22;5546;48.714;8.738;2022-09-16T14:50:58;20.10;67.60
10986;DHT22;5546;48.714;8.738;2022-09-16T14:53:32;19.90;79.40
10986;DHT22;5546;48.714;8.738;2022-09-16T14:56:00;19.90;77.20
10986;DHT22;5546;48.714;8.738;2022-09-16T14:58:27;19.20;85.10
10986;DHT22;5546;48.714;8.738;2022-09-16T15:03:46;19.60;81.10
10986;DHT22;5546;48.714;8.738;2022-09-16T15:06:17;19.90;78.70
10986;DHT22;5546;48.714;8.738;2022-09-16T15:08:50;19.80;79.50
10986;DHT22;5546;48.714;8.738;2022-09-16T15:11:22;19.70;75.30
10986;DHT22;5546;48.714;8.738;2022-09-16T15:13:48;19.60;73.20
10986;DHT22;5546;48.714;8.738;2022-09-16T15:16:17;19.50;73.70
10986;DHT22;5546;48.714;8.738;2022-09-16T15:18:55;19.70;71.10
10986;DHT22;5546;48.714;8.738;2022-09-16T15:21:25;19.40;80.10
10986;DHT22;5546;48.714;8.738;2022-09-16T15:23:54;19.30;80.70
10986;DHT22;5546;48.714;8.738;2022-09-16T15:26:29;19.80;80.00
10986;DHT22;5546;48.714;8.738;2022-09-16T15:29:06;19.70;80.40
10986;DHT22;5546;48.714;8.738;2022-09-16T15:31:39;19.70;85.30
10986;DHT22;5546;48.714;8.738;2022-09-16T15:36:44;19.10;84.70
10986;DHT22;5546;48.714;8.738;2022-09-16T15:39:27;19.10;86.80
10986;DHT22;5546;48.714;8.738;2022-09-16T15:44:34;19.50;87.70
10986;DHT22;5546;48.714;8.738;2022-09-16T15:47:01;19.50;85.80
10986;DHT22;5546;48.714;8.738;2022-09-16T15:49:28;19.60;82.70
10986;DHT22;5546;48.714;8.738;2022-09-16T15:51:55;19.60;83.40
10986;DHT22;5546;48.714;8.738;2022-09-16T15:54:44;19.60;84.80
10986;DHT22;5546;48.714;8.738;2022-09-16T15:57:37;19.10;80.50
10986;DHT22;5546;48.714;8.738;2022-09-16T16:00:06;18.80;83.50
10986;DHT22;5546;48.714;8.738;2022-09-16T16:02:47;18.80;84.60
10986;DHT22;5546;48.714;8.738;2022-09-16T16:05:29;18.90;82.90
10986;DHT22;5546;48.714;8.738;2022-09-16T16:08:00;19.00;83.40
10986;DHT22;5546;48.714;8.738;2022-09-16T16:10:31;19.40;88.20
10986;DHT22;5546;48.714;8.738;2022-09-16T16:12:59;18.90;86.90
10986;DHT22;5546;48.714;8.738;2022-09-16T16:17:53;18.80;87.30
10986;DHT22;5546;48.714;8.738;2022-09-16T16:20:21;18.30;90.40
10986;DHT22;5546;48.714;8.738;2022-09-16T16:22:47;18.10;91.40
10986;DHT22;5546;48.714;8.738;2022-09-16T16:25:13;17.70;93.00
10986;DHT22;5546;48.714;8.738;2022-09-16T16:27:38;17.70;92.50
10986;DHT22;5546;48.714;8.738;2022-09-16T16:30:05;17.80;92.30
10986;DHT22;5546;48.714;8.738;2022-09-16T16:32:31;17.60;92.50
10986;DHT22;5546;48.714;8.738;2022-09-16T16:34:57;17.10;93.60
10986;DHT22;5546;48.714;8.738;2022-09-16T16:37:24;16.90;94.80
10986;DHT22;5546;48.714;8.738;2022-09-16T16:39:50;17.00;95.40
10986;DHT22;5546;48.714;8.738;2022-09-16T16:42:15;17.10;94.70
10986;DHT22;5546;48.714;8.738;2022-09-16T16:44:41;17.40;94.10
10986;DHT22;5546;48.714;8.738;2022-09-16T16:47:08;17.00;94.80
10986;DHT22;5546;48.714;8.738;2022-09-16T16:49:34;16.90;95.10
10986;DHT22;5546;48.714;8.738;2022-09-16T16:52:00;17.20;94.60
10986;DHT22;5546;48.714;8.738;2022-09-16T16:54:26;17.00;94.50
10986;DHT22;5546;48.714;8.738;2022-09-16T16:56:53;17.20;94.90
10986;DHT22;5546;48.714;8.738;2022-09-16T16:59:20;16.90;95.50
10986;DHT22;5546;48.714;8.738;2022-09-16T17:01:50;16.90;95.40
10986;DHT22;5546;48.714;8.738;2022-09-16T17:04:16;17.00;95.60
10986;DHT22;5546;48.714;8.738;2022-09-16T17:06:42;17.00;95.30
10986;DHT22;5546;48.714;8.738;2022-09-16T17:09:08;16.90;95.20
10986;DHT22;5546;48.714;8.738;2022-09-16T17:11:35;17.10;95.20
10986;DHT22;5546;48.714;8.738;2022-09-16T17:14:04;17.00;95.40
10986;DHT22;5546;48.714;8.738;2022-09-16T17:16:30;16.60;95.80
10986;DHT22;5546;48.714;8.738;2022-09-16T17:19:00;16.40;95.70
10986;DHT22;5546;48.714;8.738;2022-09-16T17:21:29;16.50;96.10
10986;DHT22;5546;48.714;8.738;2022-09-16T17:23:55;16.50;95.30
10986;DHT22;5546;48.714;8.738;2022-09-16T17:26:22;16.60;95.70
10986;DHT22;5546;48.714;8.738;2022-09-16T17:28:49;16.50;95.60
10986;DHT22;5546;48.714;8.738;2022-09-16T17:31:22;16.50;95.90
10986;DHT22;5546;48.714;8.738;2022-09-16T17:33:51;16.30;96.60
10986;DHT22;5546;48.714;8.738;2022-09-16T17:36:17;16.00;95.90
10986;DHT22;5546;48.714;8.738;2022-09-16T17:38:45;15.80;96.00
10986;DHT22;5546;48.714;8.738;2022-09-16T17:41:13;16.10;96.40
10986;DHT22;5546;48.714;8.738;2022-09-16T17:43:40;15.90;96.00
10986;DHT22;5546;48.714;8.738;2022-09-16T17:46:10;15.90;96.30
10986;DHT22;5546;48.714;8.738;2022-09-16T17:48:36;15.70;97.30
10986;DHT22;5546;48.714;8.738;2022-09-16T17:51:02;15.80;97.20
10986;DHT22;5546;48.714;8.738;2022-09-16T17:53:28;15.40;97.20
10986;DHT22;5546;48.714;8.738;2022-09-16T17:56:02;15.50;97.40
10986;DHT22;5546;48.714;8.738;2022-09-16T17:58:27;15.50;97.30
10986;DHT22;5546;48.714;8.738;2022-09-16T18:00:53;15.50;97.60
10986;DHT22;5546;48.714;8.738;2022-09-16T18:03:18;15.70;97.20
10986;DHT22;5546;48.714;8.738;2022-09-16T18:05:44;16.00;96.70
10986;DHT22;5546;48.714;8.738;2022-09-16T18:08:11;16.00;96.90
10986;DHT22;5546;48.714;8.738;2022-09-16T18:10:36;15.70;97.20
10986;DHT22;5546;48.714;8.738;2022-09-16T18:13:02;15.60;97.40
10986;DHT22;5546;48.714;8.738;2022-09-16T18:15:28;15.70;97.00
10986;DHT22;5546;48.714;8.738;2022-09-16T18:17:54;15.90;96.70
10986;DHT22;5546;48.714;8.738;2022-09-16T18:20:20;15.80;96.20
10986;DHT22;5546;48.714;8.738;2022-09-16T18:22:45;15.90;96.60
10986;DHT22;5546;48.714;8.738;2022-09-16T18:25:12;16.00;96.00
10986;DHT22;5546;48.714;8.738;2022-09-16T18:27:38;16.00;96.30
10986;DHT22;5546;48.714;8.738;2022-09-16T18:30:04;15.90;96.30